Aérodrome :







RETROUVEZ-NOUS SUR...

 
LOGIN :

S'inscrire | Disclaimer

   EN    FR    IT 

 









Légende :    VFR   VFR Marginal   IFR   IFR Intensif   IFR Très Intensif
Visi : 
Plafond : 
>= 8 km
>= 3000ft
5 à 8 km
1000 à 3000 ft
1500m à 5 km
500 à 1000 ft
800 à 1500m
200 à 500 ft
< 800m
< 200 ft
Symboles :   Orages  Brouillard  Fortes neiges  Fortes précipitations  Vent > 20 kt






- Altitude de l'aérodrome : 75 ft
- Code IATA : YXP


CYXP - Pangnirtung

DERNIER METAR :
  • 261700Z 00000KT 15SM BKN250 M34/M38 A3022 RMK CI6 CC ASOCTD SLP239

METARs EXPIRÉS :
  • 261600Z 00000KT 15SM FEW140 FEW250 M35/M39 A3022 RMK AC1CI1 AC TR SLP240
  • 261500Z 00000KT 15SM SKC M34/M38 A3021 RMK SLP237

TAF TAF CYXP
Valide du 26 à 14h jusqu'au 26 à 23h UTC


261338Z 2614/2623 VRB03KT P6SM SKC RMK NXT FCST BY 261900Z



MET'MAP, la Météo Aéronautique d'un coup d'oeil ! - Copyright ORBIFLY Décembre 2007 - Disclaimer

ORBIFLY MET'MAP TEAM :

Programmation & Développement : Alexandra Zaïnal
Sur une idée originale de : Baudouin d'Aumeries
Assistance à la programmation : Marc-Olivier Méhu
Soutien technique & logistique : Manuel Goepfert

Contact : metmap@orbifly.com




SOURCES & CREDITS :

   NOAA